Time;durP1;ratioP1;P1;durP2;ratioP2;P2;SDS_P1;SDS_P2;PMS_P1;PMS_P2;Temp;Humidity;BMP_temperature;BMP_pressure;BME280_temperature;BME280_humidity;BME280_pressure;Samples;Min_cycle;Max_cycle;Signal;HPM_P1;HPM_P2
2021/08/13 00:02:07;;;;;;;9.67;8.67;;;20.20;99.90;;;;;;6094606;23;20645;-94
2021/08/13 00:04:35;;;;;;;9.00;8.27;;;20.20;99.90;;;;;;6092557;23;20985;-94
2021/08/13 00:07:02;;;;;;;9.77;8.77;;;20.10;99.90;;;;;;6091678;23;20595;-94
2021/08/13 00:09:31;;;;;;;10.07;8.90;;;20.10;99.90;;;;;;6091856;23;20588;-94
2021/08/13 00:11:58;;;;;;;10.20;9.27;;;20.10;99.90;;;;;;6093009;23;20588;-93
2021/08/13 00:14:25;;;;;;;10.50;9.60;;;20.00;99.90;;;;;;6092487;23;21116;-94
2021/08/13 00:16:52;;;;;;;10.37;9.47;;;20.00;99.90;;;;;;6092451;23;20923;-94
2021/08/13 00:19:20;;;;;;;10.90;9.93;;;20.00;99.90;;;;;;6091555;23;21493;-93
2021/08/13 00:21:49;;;;;;;10.77;9.57;;;19.90;99.90;;;;;;6091567;23;20590;-93
2021/08/13 00:24:16;;;;;;;10.50;9.63;;;19.90;99.90;;;;;;6093106;23;20594;-93
2021/08/13 00:26:43;;;;;;;11.03;10.07;;;19.80;99.90;;;;;;6092202;23;20621;-93
2021/08/13 00:29:10;;;;;;;10.90;9.90;;;19.80;99.90;;;;;;6092220;23;20586;-94
2021/08/13 00:31:38;;;;;;;11.53;10.43;;;19.70;99.90;;;;;;6092634;23;20586;-94
2021/08/13 00:34:05;;;;;;;10.50;9.67;;;19.80;99.90;;;;;;6093024;23;20590;-93
2021/08/13 00:36:32;;;;;;;11.40;10.20;;;19.70;99.90;;;;;;6088908;23;20574;-94
2021/08/13 00:39:02;;;;;;;11.27;10.27;;;19.70;99.90;;;;;;6091905;23;20605;-94
2021/08/13 00:41:29;;;;;;;10.63;9.63;;;19.70;99.90;;;;;;6091616;23;20689;-93
2021/08/13 00:43:56;;;;;;;11.50;10.40;;;19.60;99.90;;;;;;6092537;23;20586;-93
2021/08/13 00:46:25;;;;;;;10.30;9.40;;;19.60;99.90;;;;;;6092545;23;20617;-94
2021/08/13 00:48:52;;;;;;;12.33;10.70;;;19.60;99.90;;;;;;6091952;23;20581;-93
2021/08/13 00:51:19;;;;;;;11.80;10.60;;;19.60;99.90;;;;;;6091549;23;21167;-93
2021/08/13 00:53:46;;;;;;;12.87;10.60;;;19.60;99.90;;;;;;6092681;23;20593;-94
2021/08/13 00:56:16;;;;;;;11.70;10.70;;;19.50;99.90;;;;;;6092419;23;20586;-93
2021/08/13 00:58:46;;;;;;;12.10;11.00;;;19.50;99.90;;;;;;6091516;23;21230;-94
2021/08/13 01:01:15;;;;;;;12.47;10.87;;;19.40;99.90;;;;;;6092819;23;20617;-94
2021/08/13 01:03:42;;;;;;;11.33;10.40;;;19.40;99.90;;;;;;6093481;23;20551;-93
2021/08/13 01:06:10;;;;;;;12.00;11.00;;;19.40;99.90;;;;;;6092007;23;20601;-93
2021/08/13 01:08:36;;;;;;;12.60;11.60;;;19.40;99.90;;;;;;6091936;23;20592;-93
2021/08/13 01:11:14;;;;;;;13.20;11.87;;;19.40;99.90;;;;;;6094439;23;20704;-93
2021/08/13 01:13:48;;;;;;;16.70;12.40;;;19.30;99.90;;;;;;6093944;23;21126;-94
2021/08/13 01:16:17;;;;;;;15.17;11.93;;;19.30;99.90;;;;;;6093146;23;20584;-94
2021/08/13 01:18:50;;;;;;;15.60;10.50;;;19.30;99.90;;;;;;6092162;23;20594;-93
2021/08/13 01:21:41;;;;;;;12.73;11.63;;;19.30;99.90;;;;;;6091010;23;20697;-93
2021/08/13 01:24:12;;;;;;;12.60;11.40;;;19.20;99.90;;;;;;6092333;23;20612;-94
2021/08/13 01:26:47;;;;;;;12.50;11.37;;;19.20;99.90;;;;;;6093062;23;20585;-93
2021/08/13 01:29:29;;;;;;;11.87;10.67;;;19.20;99.90;;;;;;6093441;23;20515;-93
2021/08/13 01:32:16;;;;;;;11.53;10.50;;;19.20;99.90;;;;;;6094086;23;20561;-94
2021/08/13 01:34:51;;;;;;;11.50;10.30;;;19.20;99.90;;;;;;6074986;23;20602;-93
2021/08/13 01:37:20;;;;;;;11.87;10.77;;;19.20;99.90;;;;;;6093098;23;20605;-94
2021/08/13 01:39:49;;;;;;;11.50;10.17;;;19.10;99.90;;;;;;6094237;23;20624;-94
2021/08/13 01:42:16;;;;;;;10.87;9.97;;;19.10;99.90;;;;;;6094613;23;20604;-92
2021/08/13 01:44:47;;;;;;;10.83;9.90;;;19.10;99.90;;;;;;6094733;23;20562;-94
2021/08/13 01:47:15;;;;;;;11.87;10.77;;;19.10;99.90;;;;;;6093864;23;20606;-93
2021/08/13 01:49:41;;;;;;;11.07;10.07;;;19.10;99.90;;;;;;6093485;23;20617;-94
2021/08/13 01:52:10;;;;;;;10.80;9.90;;;19.00;99.90;;;;;;6093418;23;20675;-93
2021/08/13 01:54:38;;;;;;;11.50;10.40;;;19.00;99.90;;;;;;6094025;23;20570;-93
2021/08/13 01:57:06;;;;;;;10.53;9.53;;;19.00;99.90;;;;;;6092982;23;20585;-94
2021/08/13 01:59:34;;;;;;;10.90;9.77;;;18.90;99.90;;;;;;6093177;23;20634;-94
2021/08/13 02:02:01;;;;;;;10.83;9.93;;;18.90;99.90;;;;;;6068475;23;20578;-94
2021/08/13 02:04:28;;;;;;;11.63;10.47;;;18.90;99.90;;;;;;6094100;23;21099;-95
2021/08/13 02:06:56;;;;;;;10.90;10.07;;;18.90;99.90;;;;;;6092605;23;20629;-93
2021/08/13 02:09:25;;;;;;;12.70;11.60;;;18.90;99.90;;;;;;6093083;23;20590;-94
2021/08/13 02:11:53;;;;;;;11.43;10.43;;;18.90;99.90;;;;;;6093107;23;20589;-94
2021/08/13 02:14:20;;;;;;;12.17;11.07;;;18.90;99.90;;;;;;6093752;23;21154;-94
2021/08/13 02:16:52;;;;;;;10.90;10.10;;;18.90;99.90;;;;;;6093586;23;20604;-94
2021/08/13 02:19:24;;;;;;;11.17;9.93;;;18.90;99.90;;;;;;6093705;23;20523;-94
2021/08/13 02:21:53;;;;;;;10.83;9.77;;;18.90;99.90;;;;;;6092682;23;20870;-94
2021/08/13 02:24:20;;;;;;;12.27;11.17;;;18.90;99.90;;;;;;6093660;23;20594;-94
2021/08/13 02:26:49;;;;;;;11.40;10.40;;;18.90;99.90;;;;;;6093449;23;20947;-93
2021/08/13 02:29:16;;;;;;;11.10;10.20;;;18.90;99.90;;;;;;6093058;23;20565;-94
2021/08/13 02:31:43;;;;;;;12.00;10.83;;;19.00;99.90;;;;;;6094236;23;21112;-94
2021/08/13 02:34:09;;;;;;;13.03;12.03;;;19.00;99.90;;;;;;6093898;23;20660;-94
2021/08/13 02:36:43;;;;;;;12.23;11.13;;;19.00;99.90;;;;;;6092329;23;20963;-94
2021/08/13 02:39:17;;;;;;;11.63;10.50;;;18.90;99.90;;;;;;6092614;23;20586;-93
2021/08/13 02:41:45;;;;;;;11.00;10.10;;;19.00;99.90;;;;;;6093020;23;20578;-94
2021/08/13 02:44:15;;;;;;;11.40;10.50;;;19.00;99.90;;;;;;6093244;23;20591;-93
2021/08/13 02:46:51;;;;;;;11.93;10.80;;;18.90;99.90;;;;;;6092929;23;20562;-94
2021/08/13 02:49:20;;;;;;;11.30;10.33;;;18.90;99.90;;;;;;6067472;23;21143;-93
2021/08/13 02:51:47;;;;;;;11.03;10.03;;;19.00;99.90;;;;;;6092249;23;20590;-94
2021/08/13 02:54:21;;;;;;;10.40;9.50;;;19.00;99.90;;;;;;6093499;23;20558;-94
2021/08/13 02:56:50;;;;;;;13.13;11.07;;;18.90;99.90;;;;;;6092867;23;20689;-93
2021/08/13 02:59:19;;;;;;;14.10;10.30;;;18.90;99.90;;;;;;6092537;23;20590;-94
2021/08/13 03:01:47;;;;;;;11.53;10.07;;;18.90;99.90;;;;;;6093668;23;20598;-94
2021/08/13 03:04:15;;;;;;;12.07;10.50;;;18.90;99.90;;;;;;6093412;23;20527;-94
2021/08/13 03:06:44;;;;;;;12.03;10.93;;;18.90;99.90;;;;;;6092538;23;20586;-94
2021/08/13 03:09:11;;;;;;;11.53;10.27;;;18.90;99.90;;;;;;6092691;23;20570;-92
2021/08/13 03:11:39;;;;;;;13.20;10.93;;;19.00;99.90;;;;;;6093479;23;20581;-94
2021/08/13 03:14:08;;;;;;;11.03;10.03;;;19.00;99.90;;;;;;6093332;23;20593;-93
2021/08/13 03:16:36;;;;;;;11.07;10.27;;;19.00;99.90;;;;;;6093115;23;20596;-94
2021/08/13 03:19:04;;;;;;;11.57;10.30;;;19.00;99.90;;;;;;6093406;23;20582;-94
2021/08/13 03:21:33;;;;;;;10.97;9.90;;;19.10;99.90;;;;;;6092164;23;20602;-93
2021/08/13 03:24:01;;;;;;;11.50;10.50;;;19.10;99.90;;;;;;6068217;23;20950;-94
2021/08/13 03:26:28;;;;;;;10.13;9.33;;;19.10;99.90;;;;;;6092319;23;20605;-94
2021/08/13 03:28:55;;;;;;;10.80;9.97;;;19.10;99.90;;;;;;6092852;23;20595;-93
2021/08/13 03:31:31;;;;;;;10.60;9.57;;;19.10;99.90;;;;;;6093069;23;20626;-95
2021/08/13 03:34:00;;;;;;;11.37;10.27;;;19.20;99.90;;;;;;6093641;23;20961;-94
2021/08/13 03:36:27;;;;;;;12.47;11.37;;;19.10;99.90;;;;;;6091954;23;20602;-94
2021/08/13 03:38:54;;;;;;;12.57;9.93;;;19.10;99.90;;;;;;6092629;23;20588;-93
2021/08/13 03:41:21;;;;;;;10.80;9.77;;;19.10;99.90;;;;;;6091295;23;20637;-93
2021/08/13 03:43:48;;;;;;;12.07;10.40;;;19.10;99.90;;;;;;6090436;23;20593;-94
2021/08/13 03:46:14;;;;;;;11.70;10.80;;;19.20;99.90;;;;;;6092881;23;20597;-94
2021/08/13 03:48:41;;;;;;;11.30;10.30;;;19.20;99.90;;;;;;6092213;23;20625;-94
2021/08/13 03:51:09;;;;;;;11.20;10.10;;;19.20;99.90;;;;;;6091180;23;20598;-93
2021/08/13 03:53:36;;;;;;;11.93;10.87;;;19.20;99.90;;;;;;6092882;23;20601;-94
2021/08/13 03:56:03;;;;;;;10.87;9.97;;;19.20;99.90;;;;;;6093235;23;20586;-94
2021/08/13 03:58:30;;;;;;;11.70;10.60;;;19.20;99.90;;;;;;6092060;23;20582;-95
2021/08/13 04:00:57;;;;;;;11.93;10.80;;;19.20;99.90;;;;;;6067562;23;20610;-94
2021/08/13 04:03:24;;;;;;;12.60;10.70;;;19.20;99.90;;;;;;6092966;23;20565;-94
2021/08/13 04:05:50;;;;;;;11.63;10.00;;;19.30;99.90;;;;;;6092576;23;21108;-94
2021/08/13 04:08:19;;;;;;;12.30;11.10;;;19.30;99.90;;;;;;6091402;23;20714;-95
2021/08/13 04:10:45;;;;;;;11.97;10.77;;;19.30;99.90;;;;;;6092835;23;21211;-94
2021/08/13 04:13:12;;;;;;;10.90;9.80;;;19.30;99.90;;;;;;6092766;23;20604;-94
2021/08/13 04:15:40;;;;;;;10.40;9.50;;;19.40;99.90;;;;;;6093349;23;20570;-94
2021/08/13 04:18:07;;;;;;;11.23;10.27;;;19.40;99.90;;;;;;6092367;23;20566;-94
2021/08/13 04:20:33;;;;;;;11.70;10.80;;;19.50;99.90;;;;;;6093062;23;20618;-94
2021/08/13 04:23:00;;;;;;;12.00;9.23;;;19.50;99.90;;;;;;6093257;23;20654;-94
2021/08/13 04:25:29;;;;;;;10.23;8.60;;;19.60;99.90;;;;;;6093657;23;20558;-94
2021/08/13 04:27:55;;;;;;;9.70;8.80;;;19.50;99.90;;;;;;6092579;23;20626;-95
2021/08/13 04:30:23;;;;;;;10.73;9.70;;;19.50;99.90;;;;;;6093465;23;20622;-94
2021/08/13 04:32:50;;;;;;;9.77;8.87;;;19.50;99.90;;;;;;6097828;23;20662;-94
2021/08/13 04:35:17;;;;;;;9.50;8.60;;;19.50;99.90;;;;;;6094380;23;20910;-93
2021/08/13 04:37:44;;;;;;;10.40;9.03;;;19.50;99.90;;;;;;6091540;23;20586;-94
2021/08/13 04:40:11;;;;;;;10.47;9.47;;;19.50;99.90;;;;;;6070365;23;20610;-94
2021/08/13 04:42:39;;;;;;;11.50;8.97;;;19.50;99.90;;;;;;6092801;23;20559;-94
2021/08/13 04:45:07;;;;;;;10.10;9.10;;;19.50;99.90;;;;;;6094403;23;20568;-94
2021/08/13 04:47:34;;;;;;;10.83;9.93;;;19.50;99.90;;;;;;6094295;23;21128;-94
2021/08/13 04:50:01;;;;;;;10.27;9.37;;;19.50;99.90;;;;;;6095743;23;20935;-93
2021/08/13 04:52:28;;;;;;;9.23;8.33;;;19.60;99.90;;;;;;6094487;23;20899;-95
2021/08/13 04:54:54;;;;;;;10.53;9.43;;;19.60;99.90;;;;;;6097879;23;20600;-94
2021/08/13 04:57:21;;;;;;;10.50;9.57;;;19.60;99.90;;;;;;6098577;23;20589;-94
2021/08/13 04:59:49;;;;;;;14.07;12.57;;;19.60;99.90;;;;;;6098438;23;20616;-93
2021/08/13 05:02:21;;;;;;;13.87;11.30;;;19.60;99.90;;;;;;6098224;23;20601;-94
2021/08/13 05:04:48;;;;;;;10.63;9.73;;;19.70;99.90;;;;;;6112382;23;20621;-93
2021/08/13 05:07:14;;;;;;;11.00;9.90;;;19.70;99.90;;;;;;6106747;23;20684;-93
2021/08/13 05:09:41;;;;;;;10.07;9.27;;;19.70;99.90;;;;;;6094870;23;20614;-93
2021/08/13 05:12:08;;;;;;;9.87;8.90;;;19.80;99.90;;;;;;6109146;23;20594;-94
2021/08/13 05:14:35;;;;;;;10.60;9.70;;;19.80;99.90;;;;;;6096110;23;20582;-93
2021/08/13 05:17:04;;;;;;;12.77;11.63;;;19.80;99.90;;;;;;6094177;23;20589;-94
2021/08/13 05:19:30;;;;;;;11.33;9.07;;;19.80;99.90;;;;;;6094164;23;20589;-94
2021/08/13 05:21:57;;;;;;;15.80;10.13;;;19.80;99.90;;;;;;6093607;23;20605;-94
2021/08/13 05:24:24;;;;;;;15.63;9.90;;;19.80;99.90;;;;;;6094981;23;20883;-94
2021/08/13 05:26:51;;;;;;;11.30;10.40;;;19.80;99.90;;;;;;6068556;23;20594;-94
2021/08/13 05:29:18;;;;;;;11.57;10.37;;;19.90;99.90;;;;;;6094399;23;21137;-94
2021/08/13 05:31:45;;;;;;;11.73;10.83;;;19.90;99.90;;;;;;6094517;23;20590;-95
2021/08/13 05:34:18;;;;;;;11.87;10.87;;;19.90;99.90;;;;;;6094583;23;20613;-94
2021/08/13 05:36:45;;;;;;;19.60;11.07;;;19.90;99.90;;;;;;6067913;23;20641;-94
2021/08/13 05:39:11;;;;;;;10.03;9.03;;;20.00;99.90;;;;;;6095077;23;20581;-94
2021/08/13 05:41:38;;;;;;;10.10;9.10;;;20.10;99.90;;;;;;6091700;23;20586;-93
2021/08/13 05:44:05;;;;;;;10.90;9.87;;;20.20;99.90;;;;;;6093690;23;20899;-94
2021/08/13 05:46:32;;;;;;;10.40;9.60;;;20.20;99.90;;;;;;6093743;23;20637;-95
2021/08/13 05:49:00;;;;;;;12.60;9.73;;;20.30;99.90;;;;;;6097149;23;20624;-94
2021/08/13 05:51:28;;;;;;;10.00;9.10;;;20.40;99.90;;;;;;6094630;23;20626;-94
2021/08/13 05:53:55;;;;;;;10.63;9.50;;;20.60;99.90;;;;;;6098095;23;20578;-94
2021/08/13 05:56:22;;;;;;;11.67;10.57;;;20.70;99.90;;;;;;6097310;23;20561;-94
2021/08/13 05:58:49;;;;;;;11.60;10.50;;;20.80;99.90;;;;;;6094327;23;20677;-94
2021/08/13 06:01:16;;;;;;;12.60;11.53;;;20.90;99.90;;;;;;6093787;23;20594;-94
2021/08/13 06:03:42;;;;;;;12.07;11.00;;;20.90;99.90;;;;;;6096331;23;20590;-94
2021/08/13 06:06:09;;;;;;;11.03;9.97;;;21.00;99.90;;;;;;6093934;23;20556;-94
2021/08/13 06:08:37;;;;;;;12.20;11.00;;;21.00;99.90;;;;;;6092936;23;20693;-94
2021/08/13 06:11:06;;;;;;;14.27;10.67;;;21.00;99.90;;;;;;6093696;23;20621;-94
2021/08/13 06:13:33;;;;;;;14.03;11.43;;;21.20;99.90;;;;;;6093374;23;20588;-94
2021/08/13 06:16:00;;;;;;;13.70;9.83;;;21.20;99.90;;;;;;6093835;23;20896;-94
2021/08/13 06:18:26;;;;;;;12.00;10.97;;;21.20;99.90;;;;;;6093329;23;20586;-94
2021/08/13 06:20:53;;;;;;;11.10;10.00;;;21.20;99.90;;;;;;6093024;23;20602;-94
2021/08/13 06:23:20;;;;;;;13.17;9.77;;;21.30;99.90;;;;;;6093076;23;20586;-95
2021/08/13 06:25:48;;;;;;;11.40;10.40;;;21.30;99.90;;;;;;6093898;23;20596;-94
2021/08/13 06:28:15;;;;;;;12.07;10.30;;;21.40;99.90;;;;;;6093563;23;21023;-94
2021/08/13 06:30:42;;;;;;;11.60;10.50;;;21.50;99.90;;;;;;6093059;23;20632;-94
2021/08/13 06:33:08;;;;;;;12.90;11.10;;;21.40;99.90;;;;;;6093565;23;20593;-93
2021/08/13 06:35:36;;;;;;;12.13;11.03;;;21.60;99.90;;;;;;6093035;23;20638;-95
2021/08/13 06:38:02;;;;;;;11.60;10.70;;;21.50;99.90;;;;;;6089249;23;20653;-93
2021/08/13 06:40:32;;;;;;;11.90;9.97;;;21.70;99.90;;;;;;6092317;23;20950;-94
2021/08/13 06:43:00;;;;;;;12.70;11.13;;;21.80;99.90;;;;;;6092884;23;20611;-95
2021/08/13 06:45:27;;;;;;;11.30;9.87;;;21.80;99.90;;;;;;6092066;23;20616;-95
2021/08/13 06:47:54;;;;;;;11.07;9.97;;;21.90;99.90;;;;;;6089002;23;20593;-93
2021/08/13 06:50:22;;;;;;;13.23;9.97;;;22.00;99.90;;;;;;6091328;23;20641;-94
2021/08/13 06:52:48;;;;;;;11.07;10.07;;;22.00;99.90;;;;;;6093152;23;20618;-94
2021/08/13 06:55:15;;;;;;;18.13;11.07;;;22.10;99.90;;;;;;6093526;23;20596;-94
2021/08/13 06:57:42;;;;;;;12.63;11.33;;;22.30;99.90;;;;;;6092024;23;21375;-94
2021/08/13 07:00:13;;;;;;;11.30;10.20;;;22.30;99.90;;;;;;6093612;23;20606;-94
2021/08/13 07:02:40;;;;;;;11.53;10.53;;;22.40;99.90;;;;;;6092830;23;20617;-94
2021/08/13 07:05:08;;;;;;;10.30;9.30;;;22.60;99.90;;;;;;6088556;23;20577;-94
2021/08/13 07:07:35;;;;;;;12.13;11.07;;;22.70;99.90;;;;;;6087278;23;20590;-94
2021/08/13 07:10:14;;;;;;;10.53;9.70;;;22.80;99.90;;;;;;6093323;23;20630;-94
2021/08/13 07:12:41;;;;;;;11.70;9.77;;;22.80;99.90;;;;;;6092797;23;20523;-95
2021/08/13 07:15:12;;;;;;;11.47;10.37;;;22.90;99.90;;;;;;6093446;23;20593;-94
2021/08/13 07:17:39;;;;;;;10.80;9.80;;;23.00;99.90;;;;;;6092142;23;20649;-95
2021/08/13 07:20:08;;;;;;;12.30;11.03;;;23.10;99.90;;;;;;6093400;23;20620;-94
2021/08/13 07:22:35;;;;;;;15.00;11.27;;;23.20;99.90;;;;;;6092325;23;20586;-94
2021/08/13 07:25:02;;;;;;;11.13;10.03;;;23.30;99.90;;;;;;6093686;23;20601;-94
2021/08/13 07:27:29;;;;;;;11.00;10.00;;;23.50;99.90;;;;;;6092435;23;20594;-94
2021/08/13 07:29:57;;;;;;;11.20;10.10;;;23.60;99.90;;;;;;6093253;23;21534;-94
2021/08/13 07:32:25;;;;;;;10.67;9.40;;;23.70;99.90;;;;;;6089554;23;20578;-93
2021/08/13 07:34:52;;;;;;;10.10;9.30;;;23.70;99.90;;;;;;6092995;23;20971;-94
2021/08/13 07:37:19;;;;;;;19.60;9.80;;;23.80;99.90;;;;;;6087735;23;20590;-93
2021/08/13 07:39:47;;;;;;;11.47;10.43;;;23.80;99.90;;;;;;6088091;23;20598;-94
2021/08/13 07:42:14;;;;;;;10.20;9.30;;;23.90;99.90;;;;;;6092347;23;20601;-94
2021/08/13 07:44:40;;;;;;;10.20;9.40;;;23.90;99.90;;;;;;6092185;23;20621;-94
2021/08/13 07:47:07;;;;;;;11.13;10.20;;;24.10;99.90;;;;;;6092466;23;20570;-94
2021/08/13 07:49:36;;;;;;;13.33;10.03;;;24.20;99.90;;;;;;6092097;23;20717;-95
2021/08/13 07:52:03;;;;;;;10.20;9.13;;;24.30;99.90;;;;;;6091888;23;20924;-94
2021/08/13 07:54:30;;;;;;;11.17;10.07;;;24.40;99.90;;;;;;6092487;23;20597;-94
2021/08/13 07:56:57;;;;;;;9.93;9.03;;;24.50;99.90;;;;;;6092874;23;21147;-95
2021/08/13 07:59:24;;;;;;;10.17;9.27;;;24.50;99.90;;;;;;6089929;23;21121;-94
2021/08/13 08:01:50;;;;;;;10.63;9.67;;;24.70;99.90;;;;;;6089751;23;21115;-94
2021/08/13 08:04:17;;;;;;;11.23;10.03;;;24.70;99.90;;;;;;6091360;23;20569;-94
2021/08/13 08:06:45;;;;;;;9.00;8.30;;;24.90;99.90;;;;;;6091897;23;20570;-95
2021/08/13 08:09:13;;;;;;;9.67;8.37;;;25.00;99.90;;;;;;6091806;23;20566;-94
2021/08/13 08:11:40;;;;;;;9.33;8.50;;;25.10;99.90;;;;;;6066956;23;20601;-94
2021/08/13 08:14:08;;;;;;;11.53;9.20;;;25.20;99.90;;;;;;6092035;23;20585;-94
2021/08/13 08:16:35;;;;;;;9.50;8.60;;;25.40;99.90;;;;;;6090845;23;20581;-94
2021/08/13 08:19:02;;;;;;;9.37;8.47;;;25.50;99.90;;;;;;6088208;23;20585;-93
2021/08/13 08:21:29;;;;;;;9.30;8.47;;;25.60;99.90;;;;;;6093924;23;20625;-94
2021/08/13 08:23:57;;;;;;;8.50;7.60;;;25.80;99.90;;;;;;6091934;23;21462;-94
2021/08/13 08:26:24;;;;;;;9.10;8.20;;;25.80;99.90;;;;;;6095221;23;20586;-95
2021/08/13 08:28:52;;;;;;;9.03;8.10;;;26.00;99.90;;;;;;6094310;23;21147;-94
2021/08/13 08:31:19;;;;;;;8.20;7.37;;;26.10;99.90;;;;;;6093781;23;20637;-94
2021/08/13 08:33:46;;;;;;;8.07;7.33;;;26.30;99.90;;;;;;6094567;23;20586;-94
2021/08/13 08:36:13;;;;;;;9.53;7.43;;;26.40;99.90;;;;;;6094539;23;20581;-95
2021/08/13 08:38:40;;;;;;;8.90;8.00;;;26.50;99.90;;;;;;6093416;23;20627;-94
2021/08/13 08:41:10;;;;;;;9.07;8.40;;;26.60;99.90;;;;;;6094446;23;20614;-95
2021/08/13 08:43:37;;;;;;;8.43;7.60;;;26.80;99.90;;;;;;6095030;23;20559;-93
2021/08/13 08:46:05;;;;;;;8.13;7.43;;;27.00;99.90;;;;;;6095071;23;20574;-94
2021/08/13 08:48:35;;;;;;;8.20;7.50;;;27.10;99.90;;;;;;6092524;23;21159;-94
2021/08/13 08:51:02;;;;;;;12.90;7.27;;;27.20;99.90;;;;;;6105947;23;21197;-94
2021/08/13 08:53:30;;;;;;;7.53;6.87;;;27.30;99.90;;;;;;6096001;23;21048;-94
2021/08/13 08:55:58;;;;;;;8.90;7.27;;;27.30;99.90;;;;;;6084929;23;20609;-93
2021/08/13 08:58:29;;;;;;;8.00;7.23;;;27.40;99.90;;;;;;6101844;23;20593;-95
2021/08/13 09:00:57;;;;;;;8.40;7.43;;;27.50;99.90;;;;;;6095799;23;21264;-94
2021/08/13 09:03:24;;;;;;;8.07;6.90;;;27.60;99.90;;;;;;6095395;23;21119;-95
2021/08/13 09:05:51;;;;;;;8.27;7.57;;;27.70;99.90;;;;;;6094341;23;20593;-94
2021/08/13 09:08:18;;;;;;;10.63;7.87;;;27.80;99.90;;;;;;6092835;23;20627;-94
2021/08/13 09:10:46;;;;;;;11.80;7.80;;;27.90;99.90;;;;;;6093615;23;20637;-93
2021/08/13 09:13:13;;;;;;;7.30;6.60;;;28.00;99.90;;;;;;6093405;23;20593;-94
2021/08/13 09:15:43;;;;;;;6.30;5.90;;;28.10;99.90;;;;;;6095215;23;20590;-94
2021/08/13 09:18:16;;;;;;;8.60;7.30;;;28.20;99.90;;;;;;6092826;23;20592;-94
2021/08/13 09:20:45;;;;;;;11.07;7.43;;;28.30;99.90;;;;;;6093983;23;20614;-95
2021/08/13 09:23:27;;;;;;;6.63;6.13;;;28.40;99.90;;;;;;6093417;23;20534;-95
2021/08/13 09:25:57;;;;;;;8.27;6.17;;;28.60;99.90;;;;;;6092670;23;20564;-94
2021/08/13 09:28:39;;;;;;;7.70;6.87;;;28.70;99.90;;;;;;6064984;23;20601;-93
2021/08/13 09:31:22;;;;;;;8.07;6.87;;;28.80;99.90;;;;;;6091362;23;20593;-94
2021/08/13 09:33:50;;;;;;;8.30;7.50;;;28.90;99.90;;;;;;6089945;23;20561;-95
2021/08/13 09:36:18;;;;;;;8.73;7.37;;;29.10;99.90;;;;;;6089217;23;20558;-95
2021/08/13 09:38:49;;;;;;;8.67;7.80;;;29.20;99.90;;;;;;6092722;23;20559;-95
2021/08/13 09:41:18;;;;;;;7.67;6.97;;;29.40;99.90;;;;;;6093108;23;20616;-94
2021/08/13 09:43:56;;;;;;;9.23;7.20;;;29.40;99.90;;;;;;6093218;23;20590;-94
2021/08/13 09:46:24;;;;;;;12.60;6.60;;;29.30;99.90;;;;;;6067343;23;20665;-94
2021/08/13 09:48:52;;;;;;;9.80;7.47;;;29.40;99.90;;;;;;6092150;23;20579;-95
2021/08/13 09:51:35;;;;;;;6.93;6.00;;;29.40;99.90;;;;;;6091388;23;21252;-94
2021/08/13 09:54:04;;;;;;;7.80;7.10;;;29.50;99.90;;;;;;6092684;23;20582;-94
2021/08/13 09:56:33;;;;;;;10.60;7.10;;;29.50;99.90;;;;;;6093084;23;20594;-94
2021/08/13 09:59:13;;;;;;;7.43;6.73;;;29.60;99.90;;;;;;6091624;23;20649;-94
2021/08/13 10:01:43;;;;;;;9.00;7.73;;;29.70;99.90;;;;;;6087358;23;21048;-95
2021/08/13 10:04:10;;;;;;;7.90;7.20;;;29.80;99.90;;;;;;6092091;23;21007;-95
2021/08/13 10:06:38;;;;;;;8.77;6.60;;;30.00;99.90;;;;;;6091993;23;20594;-94
2021/08/13 10:09:06;;;;;;;9.40;8.50;;;30.30;99.50;;;;;;6090642;23;20570;-94
2021/08/13 10:11:35;;;;;;;7.50;6.80;;;30.30;98.70;;;;;;6090745;23;20684;-95
2021/08/13 10:14:02;;;;;;;9.03;7.20;;;30.60;98.30;;;;;;6091737;23;20609;-94
2021/08/13 10:16:30;;;;;;;14.70;7.90;;;30.70;98.50;;;;;;6092125;23;20657;-94
2021/08/13 10:18:59;;;;;;;9.07;7.63;;;31.00;97.80;;;;;;6091972;23;20633;-94
2021/08/13 10:21:27;;;;;;;8.90;8.10;;;31.20;96.60;;;;;;6092595;23;20606;-94
2021/08/13 10:23:55;;;;;;;8.73;7.53;;;31.30;96.50;;;;;;6092142;23;20575;-91
2021/08/13 10:26:23;;;;;;;8.80;7.93;;;31.60;95.40;;;;;;6090146;23;20618;-92
2021/08/13 10:28:51;;;;;;;8.30;7.50;;;31.70;95.20;;;;;;6092709;23;20957;-93
2021/08/13 10:31:20;;;;;;;8.40;7.70;;;31.80;95.50;;;;;;6066369;23;20710;-93
2021/08/13 10:33:48;;;;;;;11.30;7.83;;;31.90;94.80;;;;;;6092561;23;20559;-92
2021/08/13 10:36:18;;;;;;;9.27;7.60;;;31.90;95.80;;;;;;6091524;23;20987;-94
2021/08/13 10:38:48;;;;;;;10.27;7.47;;;31.90;95.80;;;;;;6091919;23;20519;-93
2021/08/13 10:41:17;;;;;;;8.27;7.57;;;32.10;95.50;;;;;;6091305;23;20610;-93
2021/08/13 10:43:47;;;;;;;7.27;6.60;;;32.20;94.50;;;;;;6087648;23;20593;-93
2021/08/13 10:46:15;;;;;;;7.57;6.83;;;32.50;94.60;;;;;;6089882;23;20563;-94
2021/08/13 10:48:45;;;;;;;9.20;7.37;;;32.60;95.00;;;;;;6091596;23;20589;-93
2021/08/13 10:51:11;;;;;;;9.57;8.77;;;32.70;94.30;;;;;;6091781;23;20645;-94
2021/08/13 10:53:40;;;;;;;8.70;7.80;;;33.00;93.70;;;;;;6090527;23;20582;-94
2021/08/13 10:56:08;;;;;;;9.97;8.80;;;33.30;94.80;;;;;;6091607;23;20602;-93
2021/08/13 10:58:52;;;;;;;9.60;8.77;;;33.40;94.20;;;;;;6091931;23;20586;-93
2021/08/13 11:01:21;;;;;;;10.20;9.30;;;33.70;93.70;;;;;;6091810;23;21166;-93
2021/08/13 11:04:12;;;;;;;9.43;8.63;;;34.10;93.70;;;;;;6092245;23;20775;-93
2021/08/13 11:06:44;;;;;;;9.47;8.63;;;34.30;92.40;;;;;;6091616;23;21230;-93
2021/08/13 11:09:13;;;;;;;9.70;8.77;;;34.40;92.70;;;;;;6091355;23;21172;-94
2021/08/13 11:12:03;;;;;;;8.40;7.70;;;34.50;91.50;;;;;;6090947;23;20558;-93
2021/08/13 11:14:31;;;;;;;9.00;8.10;;;34.80;90.80;;;;;;6087803;23;20660;-93
2021/08/13 11:16:59;;;;;;;8.90;7.90;;;35.10;89.10;;;;;;6084705;23;20584;-93
2021/08/13 11:19:27;;;;;;;9.30;8.40;;;35.30;88.30;;;;;;6090674;23;20588;-94
2021/08/13 11:21:55;;;;;;;10.20;7.90;;;35.50;87.30;;;;;;6066432;23;20630;-93
2021/08/13 11:24:25;;;;;;;10.70;8.17;;;35.80;86.50;;;;;;6092497;23;20585;-93
2021/08/13 11:27:12;;;;;;;9.30;8.50;;;35.90;85.10;;;;;;6090930;23;20585;-93
2021/08/13 11:29:44;;;;;;;9.60;8.67;;;35.70;84.90;;;;;;6090099;23;20751;-93
2021/08/13 11:32:26;;;;;;;9.80;7.50;;;35.20;86.70;;;;;;6090575;23;20577;-93
2021/08/13 11:34:56;;;;;;;8.23;7.63;;;35.10;87.70;;;;;;6092028;23;20589;-93
2021/08/13 11:37:52;;;;;;;8.73;7.63;;;35.10;85.40;;;;;;6090467;23;20590;-93
2021/08/13 11:40:42;;;;;;;9.03;7.90;;;35.60;85.50;;;;;;6090447;23;20615;-93
2021/08/13 11:43:12;;;;;;;8.53;7.73;;;36.00;83.90;;;;;;6090209;23;20589;-92
2021/08/13 11:45:40;;;;;;;8.47;7.87;;;36.10;83.10;;;;;;6091457;23;20574;-93
2021/08/13 11:48:08;;;;;;;8.87;8.20;;;36.30;83.60;;;;;;6089069;23;20585;-94
2021/08/13 11:50:35;;;;;;;9.70;8.77;;;36.60;82.60;;;;;;6091489;23;20640;-94
2021/08/13 11:53:02;;;;;;;9.33;8.53;;;36.80;81.20;;;;;;6091360;23;20562;-93
2021/08/13 11:55:30;;;;;;;8.13;7.23;;;36.80;80.00;;;;;;6091193;23;20570;-93
2021/08/13 11:57:59;;;;;;;8.67;7.87;;;36.70;81.10;;;;;;6084798;23;21127;-94
2021/08/13 12:00:29;;;;;;;10.50;9.20;;;36.70;80.80;;;;;;6085107;23;20628;-93
2021/08/13 12:03:03;;;;;;;8.60;7.77;;;36.90;79.40;;;;;;6088716;23;20946;-94
2021/08/13 12:05:31;;;;;;;9.03;8.17;;;37.20;79.50;;;;;;6092031;23;20166;-94
2021/08/13 12:08:00;;;;;;;9.80;7.83;;;37.50;79.40;;;;;;6090588;23;20178;-93
2021/08/13 12:10:28;;;;;;;9.40;8.70;;;38.00;78.50;;;;;;6091804;23;20637;-93
2021/08/13 12:12:56;;;;;;;8.77;7.97;;;38.10;75.90;;;;;;6090119;23;20190;-93
2021/08/13 12:15:34;;;;;;;8.47;7.73;;;38.40;75.90;;;;;;6091158;23;20482;-93
2021/08/13 12:18:03;;;;;;;8.70;7.90;;;38.30;72.40;;;;;;6088782;23;20184;-93
2021/08/13 12:20:31;;;;;;;9.63;8.77;;;38.50;74.20;;;;;;6089682;23;20664;-93
2021/08/13 12:23:03;;;;;;;10.15;7.78;;;38.70;73.50;;;;;;6089492;23;20521;-93
2021/08/13 12:25:36;;;;;;;8.82;8.00;;;38.60;74.00;;;;;;6088638;23;20240;-92
2021/08/13 12:28:04;;;;;;;7.97;7.28;;;38.70;72.20;;;;;;6083912;23;20178;-92
2021/08/13 12:30:34;;;;;;;8.25;7.55;;;38.90;71.30;;;;;;6085300;23;20201;-93
2021/08/13 12:33:02;;;;;;;8.50;7.82;;;39.00;71.10;;;;;;6085399;23;20184;-93
2021/08/13 12:35:37;;;;;;;8.38;7.68;;;39.30;69.60;;;;;;6090905;23;20213;-93
2021/08/13 12:38:04;;;;;;;8.35;7.75;;;39.20;67.60;;;;;;6086307;23;20229;-93
2021/08/13 12:40:33;;;;;;;11.38;8.63;;;39.30;68.30;;;;;;6085864;23;20213;-93
2021/08/13 12:43:00;;;;;;;8.35;7.55;;;39.60;67.30;;;;;;6084481;23;20717;-93
2021/08/13 12:45:27;;;;;;;10.10;9.10;;;39.50;68.50;;;;;;6084684;23;20170;-93